Time;durP1;ratioP1;P1;durP2;ratioP2;P2;SDS_P1;SDS_P2;PMS_P1;PMS_P2;Temp;Humidity;BMP_temperature;BMP_pressure;BME280_temperature;BME280_humidity;BME280_pressure;Samples;Min_cycle;Max_cycle;Signal;HPM_P1;HPM_P2
2022/04/08 00:00:09;;;;;;;15.00;2.17;;;;;;;4.44;100.00;99617.56;5352207;27;20483;-63
2022/04/08 00:02:41;;;;;;;9.52;2.10;;;;;;;4.45;100.00;99611.34;5350161;27;20434;-63
2022/04/08 00:05:12;;;;;;;16.63;2.17;;;;;;;4.49;100.00;99617.25;5350639;27;20083;-64
2022/04/08 00:07:43;;;;;;;13.18;2.20;;;;;;;4.50;100.00;99616.28;5350344;27;20033;-63
2022/04/08 00:10:15;;;;;;;13.32;3.03;;;;;;;4.54;100.00;99627.47;5353620;27;20030;-63
2022/04/08 00:12:46;;;;;;;11.63;2.00;;;;;;;4.54;100.00;99636.25;5350500;27;20034;-63
2022/04/08 00:15:17;;;;;;;11.43;2.15;;;;;;;4.54;100.00;99646.81;5348031;27;20054;-63
2022/04/08 00:17:49;;;;;;;11.25;2.13;;;;;;;4.58;100.00;99644.78;5349533;27;20041;-63
2022/04/08 00:20:20;;;;;;;11.30;2.30;;;;;;;4.62;100.00;99651.53;5354855;27;20122;-63
2022/04/08 00:22:52;;;;;;;10.90;2.20;;;;;;;4.63;100.00;99650.59;5353863;27;20030;-63
2022/04/08 00:25:23;;;;;;;15.15;2.15;;;;;;;4.67;100.00;99665.28;5350841;27;20065;-63
2022/04/08 00:27:54;;;;;;;19.70;2.50;;;;;;;4.67;100.00;99660.84;5358141;27;20438;-63
2022/04/08 00:30:26;;;;;;;14.68;2.38;;;;;;;4.58;100.00;99665.94;5349772;27;20072;-63
2022/04/08 00:32:58;;;;;;;17.75;2.47;;;;;;;4.45;100.00;99660.66;5352223;27;20031;-63
2022/04/08 00:35:29;;;;;;;12.90;2.40;;;;;;;4.37;100.00;99663.84;5355004;27;20452;-64
2022/04/08 00:38:00;;;;;;;9.77;2.67;;;;;;;4.29;100.00;99660.88;5352588;27;20062;-63
2022/04/08 00:40:33;;;;;;;17.60;2.45;;;;;;;4.20;100.00;99666.81;5354954;27;20034;-63
2022/04/08 00:43:11;;;;;;;22.67;3.30;;;;;;;4.15;100.00;99658.38;5355754;27;20488;-63
2022/04/08 00:45:44;;;;;;;14.32;2.80;;;;;;;4.17;100.00;99673.16;5354136;27;20115;-63
2022/04/08 00:48:15;;;;;;;11.50;2.60;;;;;;;4.17;100.00;99675.78;5352437;27;20069;-63
2022/04/08 00:50:46;;;;;;;15.88;2.85;;;;;;;4.19;100.00;99681.81;5356095;27;20110;-63
2022/04/08 00:53:18;;;;;;;17.27;2.70;;;;;;;4.22;100.00;99689.53;5360245;27;20030;-63
2022/04/08 00:55:49;;;;;;;15.05;2.60;;;;;;;4.25;100.00;99691.94;5356694;27;20035;-63
2022/04/08 00:58:21;;;;;;;16.33;2.35;;;;;;;4.26;100.00;99690.16;5358003;27;20055;-63
2022/04/08 01:00:52;;;;;;;17.73;3.00;;;;;;;4.29;100.00;99696.06;5359850;27;20034;-64
2022/04/08 01:03:24;;;;;;;14.57;2.63;;;;;;;4.28;100.00;99701.47;5355890;27;20388;-63
2022/04/08 01:05:56;;;;;;;14.68;2.47;;;;;;;4.27;100.00;99694.47;5350813;27;20531;-63
2022/04/08 01:08:28;;;;;;;20.83;2.97;;;;;;;4.24;100.00;99707.91;5350803;27;20487;-63
2022/04/08 01:10:59;;;;;;;13.75;2.40;;;;;;;4.21;100.00;99710.75;5362543;27;20035;-63
2022/04/08 01:13:31;;;;;;;14.25;2.67;;;;;;;4.25;100.00;99714.88;5355979;27;20083;-64
2022/04/08 01:16:05;;;;;;;14.85;2.45;;;;;;;4.29;100.00;99732.19;5360425;27;20031;-63
2022/04/08 01:18:37;;;;;;;;;;;;;;;4.27;100.00;99726.16;5357156;27;20027;-63
2022/04/08 01:21:08;;;;;;;11.57;2.13;;;;;;;4.31;100.00;99722.34;5356455;27;19911;-63
2022/04/08 01:23:46;;;;;;;18.98;3.17;;;;;;;4.32;100.00;99727.53;5354724;27;20030;-63
2022/04/08 01:26:17;;;;;;;13.63;2.35;;;;;;;4.29;100.00;99724.25;5354212;27;20030;-63
2022/04/08 01:28:50;;;;;;;14.07;2.42;;;;;;;4.24;100.00;99723.75;5356987;27;20540;-64
2022/04/08 01:31:24;;;;;;;15.63;2.50;;;;;;;4.19;100.00;99731.13;5356564;27;21908;-63
2022/04/08 01:33:55;;;;;;;17.25;2.67;;;;;;;4.15;100.00;99735.75;5355427;27;21270;-63
2022/04/08 01:36:27;;;;;;;14.43;2.60;;;;;;;4.14;100.00;99744.63;5352396;27;20157;-63
2022/04/08 01:38:58;;;;;;;14.95;3.20;;;;;;;4.18;100.00;99740.84;5353174;27;20023;-63
2022/04/08 01:41:31;;;;;;;20.38;3.17;;;;;;;4.19;100.00;99747.81;5355536;27;20156;-63
2022/04/08 01:44:02;;;;;;;16.20;2.65;;;;;;;4.24;100.00;99740.44;5349284;27;20109;-63
2022/04/08 01:46:34;;;;;;;16.10;3.00;;;;;;;4.25;100.00;99741.25;5356907;27;20079;-63
2022/04/08 01:49:05;;;;;;;12.20;2.28;;;;;;;4.17;100.00;99733.03;5354469;27;20376;-63
2022/04/08 01:51:36;;;;;;;24.88;2.95;;;;;;;4.12;100.00;99742.09;5333399;27;20027;-63
2022/04/08 01:54:07;;;;;;;13.50;2.50;;;;;;;4.06;100.00;99747.78;5353604;27;20498;-63
2022/04/08 01:56:39;;;;;;;12.70;2.95;;;;;;;4.05;100.00;99745.25;5355349;27;20077;-63
2022/04/08 01:59:10;;;;;;;14.57;2.58;;;;;;;4.05;100.00;99750.53;5356159;27;20030;-63
2022/04/08 02:01:41;;;;;;;22.05;2.92;;;;;;;4.01;100.00;99755.19;5355104;27;20269;-63
2022/04/08 02:04:13;;;;;;;17.45;2.83;;;;;;;4.02;100.00;99753.38;5353165;27;20031;-64
2022/04/08 02:06:44;;;;;;;12.52;2.40;;;;;;;3.96;100.00;99753.78;5354176;27;20027;-63
2022/04/08 02:09:15;;;;;;;17.27;2.85;;;;;;;3.93;100.00;99763.59;5351442;27;20031;-63
2022/04/08 02:11:47;;;;;;;13.65;3.22;;;;;;;3.89;100.00;99767.41;5356129;27;20023;-63
2022/04/08 02:14:18;;;;;;;15.70;2.35;;;;;;;3.85;100.00;99759.78;5352054;27;20559;-63
2022/04/08 02:16:49;;;;;;;18.38;2.92;;;;;;;3.81;100.00;99774.13;5356096;27;20176;-63
2022/04/08 02:19:20;;;;;;;16.27;2.70;;;;;;;3.74;100.00;99771.03;5360858;27;20022;-63
2022/04/08 02:21:52;;;;;;;17.30;2.50;;;;;;;3.70;100.00;99770.41;5355326;27;20526;-63
2022/04/08 02:24:24;;;;;;;15.82;2.67;;;;;;;3.65;100.00;99772.47;5355425;27;20048;-63
2022/04/08 02:26:56;;;;;;;15.05;2.50;;;;;;;3.63;100.00;99769.09;5353909;27;20050;-64
2022/04/08 02:29:27;;;;;;;16.83;2.50;;;;;;;3.63;100.00;99781.44;5355137;27;20049;-63
2022/04/08 02:31:59;;;;;;;16.67;2.72;;;;;;;3.66;100.00;99779.47;5353568;27;20050;-64
2022/04/08 02:34:30;;;;;;;9.80;2.50;;;;;;;3.60;100.00;99784.28;5351717;27;20179;-63
2022/04/08 02:37:02;;;;;;;15.98;2.67;;;;;;;3.66;100.00;99782.09;5353634;27;20031;-63
2022/04/08 02:39:33;;;;;;;17.15;2.55;;;;;;;3.60;100.00;99784.28;5352483;27;20468;-63
2022/04/08 02:42:05;;;;;;;11.82;2.17;;;;;;;3.56;100.00;99782.78;5352934;27;20045;-63
2022/04/08 02:44:36;;;;;;;15.65;2.85;;;;;;;3.54;100.00;99782.88;5351928;27;20038;-63
2022/04/08 02:47:07;;;;;;;10.38;2.45;;;;;;;3.53;100.00;99782.03;5351298;27;20030;-63
2022/04/08 02:49:38;;;;;;;13.57;2.30;;;;;;;3.45;100.00;99781.69;5348453;27;20719;-63
2022/04/08 02:52:10;;;;;;;12.27;2.30;;;;;;;3.43;100.00;99778.31;5352060;27;20380;-63
2022/04/08 02:54:41;;;;;;;13.98;2.85;;;;;;;3.41;100.00;99790.72;5350442;27;20076;-63
2022/04/08 02:57:12;;;;;;;12.05;2.50;;;;;;;3.35;100.00;99780.56;5352044;27;20030;-64
2022/04/08 02:59:43;;;;;;;16.70;3.08;;;;;;;3.29;100.00;99787.06;5350004;27;20023;-63
2022/04/08 03:02:15;;;;;;;10.73;2.22;;;;;;;3.24;100.00;99785.66;5353738;27;20054;-63
2022/04/08 03:04:46;;;;;;;14.98;2.58;;;;;;;3.21;100.00;99789.34;5351661;27;20031;-63
2022/04/08 03:07:17;;;;;;;12.65;2.00;;;;;;;3.17;100.00;99795.78;5353351;27;20131;-63
2022/04/08 03:09:50;;;;;;;11.85;1.98;;;;;;;3.17;100.00;99790.50;5352781;27;21065;-63
2022/04/08 03:12:22;;;;;;;12.70;2.60;;;;;;;3.11;100.00;99788.25;5350540;27;20049;-63
2022/04/08 03:14:53;;;;;;;12.48;2.45;;;;;;;3.22;100.00;99795.47;5350856;27;20055;-63
2022/04/08 03:17:25;;;;;;;13.65;2.53;;;;;;;3.06;100.00;99795.59;5348277;27;20030;-63
2022/04/08 03:19:57;;;;;;;11.75;3.25;;;;;;;2.99;100.00;99792.47;5348494;27;20565;-63
2022/04/08 03:22:28;;;;;;;16.35;2.90;;;;;;;2.96;100.00;99791.84;5353179;27;20035;-63
2022/04/08 03:25:00;;;;;;;11.65;2.60;;;;;;;2.91;100.00;99803.47;5331225;27;20148;-64
2022/04/08 03:27:31;;;;;;;17.80;3.42;;;;;;;2.85;100.00;99793.31;5351257;27;20015;-63
2022/04/08 03:30:03;;;;;;;15.35;2.78;;;;;;;2.91;100.00;99805.28;5358074;27;20456;-63
2022/04/08 03:32:34;;;;;;;10.43;2.53;;;;;;;2.91;100.00;99806.13;5355353;27;20475;-63
2022/04/08 03:35:06;;;;;;;11.60;2.70;;;;;;;2.82;100.00;99813.75;5337505;27;20026;-63
2022/04/08 03:37:37;;;;;;;14.07;3.40;;;;;;;2.78;100.00;99809.59;5350999;27;20035;-63
2022/04/08 03:40:09;;;;;;;11.10;2.63;;;;;;;2.80;100.00;99819.13;5354430;27;20030;-63
2022/04/08 03:42:41;;;;;;;11.10;2.95;;;;;;;2.77;100.00;99819.31;5360612;27;20507;-63
2022/04/08 03:45:13;;;;;;;13.30;3.15;;;;;;;2.69;100.00;99816.28;5355890;27;20070;-64
2022/04/08 03:47:44;;;;;;;12.02;2.70;;;;;;;2.70;100.00;99818.84;5349930;27;20026;-63
2022/04/08 03:50:16;;;;;;;9.55;2.70;;;;;;;2.67;100.00;99815.53;5351634;27;20037;-63
2022/04/08 03:52:47;;;;;;;10.57;3.22;;;;;;;2.60;100.00;99822.09;5359605;27;20163;-63
2022/04/08 03:55:18;;;;;;;13.10;2.85;;;;;;;2.57;100.00;99819.66;5355927;27;21667;-63
2022/04/08 03:57:50;;;;;;;10.45;2.97;;;;;;;2.55;100.00;99828.50;5361158;27;20035;-63
2022/04/08 04:00:21;;;;;;;13.57;3.65;;;;;;;2.52;100.00;99828.66;5353969;27;20050;-64
2022/04/08 04:02:52;;;;;;;10.23;3.53;;;;;;;2.45;100.00;99829.97;5355677;27;20037;-63
2022/04/08 04:05:24;;;;;;;12.63;3.53;;;;;;;2.47;100.00;99828.09;5356192;27;20038;-63
2022/04/08 04:07:58;;;;;;;17.35;3.55;;;;;;;2.41;100.00;99828.47;5358567;27;20161;-64
2022/04/08 04:10:29;;;;;;;9.27;4.18;;;;;;;2.38;100.00;99822.53;5361029;27;20062;-64
2022/04/08 04:13:00;;;;;;;17.23;3.60;;;;;;;2.34;100.00;99817.47;5365263;27;20054;-64
2022/04/08 04:15:31;;;;;;;13.93;4.53;;;;;;;2.31;100.00;99819.41;5354899;27;20033;-63
2022/04/08 04:18:04;;;;;;;8.35;3.58;;;;;;;2.30;100.00;99817.72;5359588;27;20441;-63
2022/04/08 04:20:35;;;;;;;10.20;3.90;;;;;;;2.31;100.00;99817.63;5360044;27;21093;-63
2022/04/08 04:23:06;;;;;;;11.45;3.72;;;;;;;2.35;100.00;99823.56;5357385;27;20033;-63
2022/04/08 04:25:37;;;;;;;12.77;4.07;;;;;;;2.23;100.00;99817.25;5358421;27;20091;-63
2022/04/08 04:28:09;;;;;;;12.13;3.70;;;;;;;2.16;100.00;99814.09;5352740;27;20019;-63
2022/04/08 04:30:40;;;;;;;11.77;4.20;;;;;;;2.27;100.00;99816.13;5356301;27;20464;-63
2022/04/08 04:33:11;;;;;;;12.43;3.80;;;;;;;2.21;100.00;99818.28;5362602;27;20494;-64
2022/04/08 04:35:43;;;;;;;15.18;4.45;;;;;;;2.25;100.00;99815.38;5352734;27;20049;-63
2022/04/08 04:38:14;;;;;;;11.23;4.32;;;;;;;2.21;100.00;99824.38;5352066;27;20113;-63
2022/04/08 04:40:45;;;;;;;12.55;4.18;;;;;;;2.09;100.00;99815.41;5353250;27;20027;-63
2022/04/08 04:43:16;;;;;;;14.98;4.60;;;;;;;2.05;100.00;99821.78;5356380;27;20065;-63
2022/04/08 04:45:48;;;;;;;14.40;4.80;;;;;;;2.12;100.00;99822.28;5354404;27;20027;-63
2022/04/08 04:48:19;;;;;;;13.15;4.88;;;;;;;2.13;100.00;99819.56;5356836;27;20054;-63
2022/04/08 04:50:50;;;;;;;14.57;5.57;;;;;;;2.05;100.00;99829.69;5352898;27;20400;-63
2022/04/08 04:53:22;;;;;;;13.40;5.45;;;;;;;2.03;100.00;99828.06;5353869;27;20027;-63
2022/04/08 04:55:54;;;;;;;12.27;5.82;;;;;;;2.01;100.00;99830.78;5355173;27;20015;-63
2022/04/08 04:58:26;;;;;;;14.93;6.60;;;;;;;1.99;100.00;99822.13;5355912;27;20034;-64
2022/04/08 05:00:57;;;;;;;14.40;7.03;;;;;;;2.04;100.00;99825.34;5353601;27;20483;-63
2022/04/08 05:03:28;;;;;;;18.17;7.30;;;;;;;2.05;100.00;99823.56;5357479;27;20425;-63
2022/04/08 05:05:59;;;;;;;20.60;7.18;;;;;;;1.93;100.00;99815.44;5352963;27;20068;-63
2022/04/08 05:08:31;;;;;;;15.23;8.32;;;;;;;1.99;100.00;99811.59;5354225;27;20058;-64
2022/04/08 05:11:02;;;;;;;16.38;7.32;;;;;;;1.92;100.00;99807.66;5353537;27;20026;-63
2022/04/08 05:13:33;;;;;;;17.08;8.48;;;;;;;1.96;100.00;99811.78;5354229;27;20054;-64
2022/04/08 05:16:05;;;;;;;17.65;8.48;;;;;;;2.03;100.00;99821.00;5352107;27;20062;-64
2022/04/08 05:18:37;;;;;;;20.90;8.57;;;;;;;1.97;100.00;99813.47;5357473;27;20038;-64
2022/04/08 05:21:08;;;;;;;18.75;7.97;;;;;;;2.05;100.00;99810.41;5353188;27;20045;-64
2022/04/08 05:23:40;;;;;;;18.00;8.45;;;;;;;2.05;100.00;99813.91;5333684;27;20034;-63
2022/04/08 05:26:11;;;;;;;16.02;9.02;;;;;;;2.12;100.00;99811.75;5356048;27;20038;-63
2022/04/08 05:28:42;;;;;;;14.80;8.35;;;;;;;2.09;100.00;99818.03;5355069;27;20368;-63
2022/04/08 05:31:14;;;;;;;17.20;8.93;;;;;;;2.20;100.00;99819.19;5343597;27;20056;-63
2022/04/08 05:33:45;;;;;;;21.95;9.15;;;;;;;2.19;100.00;99814.84;5353238;27;20177;-63
2022/04/08 05:36:16;;;;;;;21.95;10.57;;;;;;;2.25;100.00;99806.63;5360353;27;20039;-63
2022/04/08 05:38:48;;;;;;;20.65;10.95;;;;;;;2.27;100.00;99810.00;5337625;27;20031;-63
2022/04/08 05:41:19;;;;;;;20.58;11.65;;;;;;;2.36;100.00;99804.22;5352168;27;20022;-63
2022/04/08 05:43:50;;;;;;;24.23;11.77;;;;;;;2.43;100.00;99809.94;5346422;27;20086;-63
2022/04/08 05:46:22;;;;;;;22.40;11.38;;;;;;;2.42;100.00;99798.56;5351172;27;20065;-63
2022/04/08 05:48:53;;;;;;;23.63;12.07;;;;;;;2.55;100.00;99807.44;5356899;27;20110;-63
2022/04/08 05:51:24;;;;;;;25.17;12.45;;;;;;;2.62;100.00;99805.25;5354917;27;20523;-63
2022/04/08 05:53:55;;;;;;;29.95;13.35;;;;;;;2.58;100.00;99795.88;5353841;27;20031;-63
2022/04/08 05:56:27;;;;;;;28.75;12.85;;;;;;;2.63;100.00;99785.91;5358298;27;20023;-63
2022/04/08 05:58:58;;;;;;;23.88;12.73;;;;;;;2.63;100.00;99790.34;5357612;27;20084;-63
2022/04/08 06:01:29;;;;;;;30.65;13.43;;;;;;;2.64;100.00;99794.66;5354539;27;20415;-63
2022/04/08 06:04:00;;;;;;;21.02;12.32;;;;;;;2.68;100.00;99783.81;5357650;27;20018;-63
2022/04/08 06:06:32;;;;;;;25.25;12.63;;;;;;;2.69;100.00;99785.53;5360172;27;20015;-63
2022/04/08 06:09:03;;;;;;;22.33;12.65;;;;;;;2.72;100.00;99784.47;5354965;27;20033;-63
2022/04/08 06:11:34;;;;;;;25.38;13.05;;;;;;;2.77;100.00;99787.69;5362060;27;20404;-63
2022/04/08 06:14:06;;;;;;;24.52;12.75;;;;;;;2.73;100.00;99784.41;5357067;27;20126;-63
2022/04/08 06:16:37;;;;;;;23.52;13.18;;;;;;;2.82;100.00;99790.03;5352430;27;20027;-63
2022/04/08 06:19:08;;;;;;;19.63;12.73;;;;;;;2.88;100.00;99789.69;5352416;27;20598;-63
2022/04/08 06:21:40;;;;;;;21.88;11.75;;;;;;;2.88;100.00;99790.53;5358652;27;20396;-63
2022/04/08 06:24:11;;;;;;;20.98;11.52;;;;;;;2.88;100.00;99794.94;5354806;27;20029;-63
2022/04/08 06:26:42;;;;;;;20.52;11.18;;;;;;;3.00;100.00;99795.97;5356701;27;20037;-63
2022/04/08 06:29:13;;;;;;;18.83;11.20;;;;;;;2.97;100.00;99796.16;5345296;27;20414;-63
2022/04/08 06:31:45;;;;;;;21.27;11.32;;;;;;;3.05;100.00;99796.50;5350518;27;20030;-63
2022/04/08 06:34:16;;;;;;;17.98;11.38;;;;;;;3.10;100.00;99803.19;5354521;27;20034;-63
2022/04/08 06:36:47;;;;;;;17.60;10.27;;;;;;;3.20;100.00;99795.56;5351475;27;20387;-63
2022/04/08 06:39:19;;;;;;;17.63;10.98;;;;;;;3.29;100.00;99787.06;5354208;27;20083;-63
2022/04/08 06:41:50;;;;;;;14.15;10.60;;;;;;;3.38;100.00;99785.66;5332410;27;20039;-63
2022/04/08 06:44:21;;;;;;;18.75;10.60;;;;;;;3.52;100.00;99779.50;5351404;27;20392;-63
2022/04/08 06:46:52;;;;;;;16.77;10.02;;;;;;;3.67;100.00;99778.50;5353649;27;20025;-63
2022/04/08 06:49:23;;;;;;;17.70;9.88;;;;;;;3.83;100.00;99777.50;5352976;27;20062;-63
2022/04/08 06:51:58;;;;;;;19.63;10.32;;;;;;;3.97;100.00;99771.31;5352313;27;20031;-63
2022/04/08 06:54:30;;;;;;;;;;;;;;;4.08;100.00;99772.28;5354545;27;20117;-63
2022/04/08 06:57:01;;;;;;;18.80;9.65;;;;;;;4.26;100.00;99764.09;5353406;27;19932;-63
2022/04/08 06:59:33;;;;;;;17.55;8.80;;;;;;;4.45;100.00;99768.94;5351999;27;20045;-63
2022/04/08 07:02:04;;;;;;;16.30;8.13;;;;;;;4.50;100.00;99767.69;5350232;27;20474;-63
2022/04/08 07:04:36;;;;;;;13.25;8.07;;;;;;;4.63;100.00;99762.41;5353893;27;20064;-63
2022/04/08 07:07:07;;;;;;;12.75;8.10;;;;;;;4.75;100.00;99767.78;5350277;27;20026;-63
2022/04/08 07:09:39;;;;;;;14.65;7.85;;;;;;;4.86;100.00;99778.47;5346330;27;20035;-63
2022/04/08 07:12:10;;;;;;;12.30;7.00;;;;;;;4.97;100.00;99775.06;5344869;27;20027;-63
2022/04/08 07:14:41;;;;;;;13.13;6.78;;;;;;;5.01;100.00;99781.84;5347567;27;20050;-63
2022/04/08 07:17:12;;;;;;;14.48;7.20;;;;;;;5.16;100.00;99772.81;5347910;27;20130;-63
2022/04/08 07:19:44;;;;;;;12.63;6.10;;;;;;;5.23;100.00;99767.91;5344846;27;20101;-63
2022/04/08 07:22:15;;;;;;;13.30;5.75;;;;;;;5.32;100.00;99758.50;5346785;27;20113;-63
2022/04/08 07:24:46;;;;;;;11.65;6.63;;;;;;;5.35;100.00;99761.75;5348575;27;20034;-63
2022/04/08 07:27:18;;;;;;;11.82;6.20;;;;;;;5.51;100.00;99758.84;5345726;27;20023;-63
2022/04/08 07:29:50;;;;;;;9.55;6.13;;;;;;;5.56;100.00;99759.34;5343508;27;20952;-63
2022/04/08 07:32:22;;;;;;;13.50;5.82;;;;;;;5.65;100.00;99756.00;5345817;27;20031;-63
2022/04/08 07:34:53;;;;;;;9.98;5.45;;;;;;;5.75;100.00;99758.81;5347420;27;20030;-63
2022/04/08 07:37:29;;;;;;;11.07;5.32;;;;;;;5.81;100.00;99757.53;5345056;27;20045;-63
2022/04/08 07:40:00;;;;;;;11.18;5.43;;;;;;;5.87;100.00;99754.44;5343721;27;20034;-64
2022/04/08 07:42:32;;;;;;;11.55;5.20;;;;;;;6.00;100.00;99751.72;5346119;27;20049;-64
2022/04/08 07:45:04;;;;;;;11.13;5.45;;;;;;;6.11;100.00;99757.06;5345553;27;20117;-64
2022/04/08 07:47:36;;;;;;;7.68;5.03;;;;;;;6.11;100.00;99759.72;5345541;27;20484;-64
2022/04/08 07:50:10;;;;;;;9.15;4.50;;;;;;;6.22;100.00;99759.75;5343646;27;20027;-64
2022/04/08 07:52:42;;;;;;;12.93;5.32;;;;;;;6.33;100.00;99758.09;5346408;27;20037;-64
2022/04/08 07:55:13;;;;;;;10.75;4.90;;;;;;;6.37;100.00;99754.28;5346466;27;20942;-64
2022/04/08 07:57:49;;;;;;;11.27;5.07;;;;;;;6.43;100.00;99749.31;5347193;27;20018;-64
2022/04/08 08:00:25;;;;;;;7.80;4.70;;;;;;;6.58;100.00;99754.41;5342304;27;20054;-64
2022/04/08 08:02:56;;;;;;;12.43;5.75;;;;;;;6.63;100.00;99746.94;5343536;27;20109;-64
2022/04/08 08:05:28;;;;;;;9.43;4.68;;;;;;;6.70;100.00;99747.31;5326644;27;20079;-64
2022/04/08 08:08:01;;;;;;;10.23;5.10;;;;;;;6.76;100.00;99745.00;5346266;27;20034;-64
2022/04/08 08:10:35;;;;;;;10.23;4.80;;;;;;;6.75;98.26;99745.13;5346037;27;20200;-64
2022/04/08 08:13:06;;;;;;;;;;;;;;;6.94;100.00;99740.09;5348948;27;20050;-64
2022/04/08 08:15:39;;;;;;;9.40;4.50;;;;;;;6.92;98.47;99746.47;5342978;27;20428;-64
2022/04/08 08:18:10;;;;;;;7.93;4.47;;;;;;;6.97;97.63;99742.47;5349965;27;20042;-64
2022/04/08 08:20:42;;;;;;;11.18;4.70;;;;;;;6.99;96.07;99753.81;5348221;27;20027;-64
2022/04/08 08:23:13;;;;;;;11.13;5.00;;;;;;;6.98;93.44;99749.50;5345596;27;20027;-64
2022/04/08 08:25:44;;;;;;;8.43;4.35;;;;;;;6.99;93.81;99751.16;5345784;27;20038;-64
2022/04/08 08:28:16;;;;;;;8.82;4.50;;;;;;;7.09;96.39;99745.13;5345974;27;20150;-64
2022/04/08 08:30:47;;;;;;;10.43;4.43;;;;;;;7.13;92.79;99742.09;5345026;27;20080;-64
2022/04/08 08:33:19;;;;;;;10.55;4.40;;;;;;;7.17;92.22;99726.78;5345747;27;20039;-64
2022/04/08 08:35:50;;;;;;;7.50;4.00;;;;;;;7.28;90.95;99729.41;5344633;27;20389;-64
2022/04/08 08:38:21;;;;;;;12.25;4.15;;;;;;;7.35;91.84;99730.63;5345149;27;20033;-64
2022/04/08 08:40:53;;;;;;;7.57;3.97;;;;;;;7.44;92.42;99719.25;5345993;27;20019;-64
2022/04/08 08:43:24;;;;;;;10.45;3.63;;;;;;;7.55;90.51;99714.88;5350327;27;20488;-64
2022/04/08 08:45:56;;;;;;;7.07;3.88;;;;;;;7.57;89.23;99699.66;5351807;27;20491;-64
2022/04/08 08:48:30;;;;;;;13.93;4.72;;;;;;;7.66;90.57;99712.19;5347666;27;20039;-64
2022/04/08 08:51:05;;;;;;;12.37;3.87;;;;;;;7.68;85.30;99702.28;5348693;27;20034;-63
2022/04/08 08:53:36;;;;;;;8.85;3.20;;;;;;;7.78;83.34;99697.03;5348527;27;20448;-63
2022/04/08 08:56:08;;;;;;;6.35;3.15;;;;;;;7.88;87.39;99695.31;5345523;27;20037;-64
2022/04/08 08:58:39;;;;;;;8.02;2.88;;;;;;;7.86;83.22;99691.94;5349204;27;20049;-64
2022/04/08 09:01:11;;;;;;;6.28;3.05;;;;;;;8.05;88.08;99685.91;5348225;27;20033;-64
2022/04/08 09:03:44;;;;;;;7.47;3.50;;;;;;;8.09;86.76;99687.31;5346653;27;20034;-64
2022/04/08 09:06:17;;;;;;;10.38;3.45;;;;;;;8.16;83.68;99683.19;5348137;27;20034;-64
2022/04/08 09:08:59;;;;;;;6.88;2.78;;;;;;;8.32;84.08;99677.44;5345963;27;20038;-64
2022/04/08 09:11:31;;;;;;;6.63;2.60;;;;;;;8.31;79.78;99674.88;5349676;27;20035;-64
2022/04/08 09:14:04;;;;;;;8.75;2.90;;;;;;;8.38;84.17;99678.69;5348981;27;20042;-64
2022/04/08 09:16:37;;;;;;;10.20;2.87;;;;;;;8.44;82.19;99673.72;5347722;27;20250;-64
2022/04/08 09:19:10;;;;;;;6.68;3.03;;;;;;;8.53;83.98;99684.53;5344851;27;20027;-64
2022/04/08 09:21:52;;;;;;;6.97;2.55;;;;;;;8.50;77.52;99687.47;5348805;27;20030;-64
2022/04/08 09:24:23;;;;;;;7.15;2.80;;;;;;;8.63;81.32;99682.78;5349044;27;20516;-64
2022/04/08 09:26:56;;;;;;;6.53;2.35;;;;;;;8.57;79.60;99678.84;5344574;27;20433;-64
2022/04/08 09:29:27;;;;;;;7.40;3.20;;;;;;;8.63;79.12;99680.13;5348643;27;20118;-64
2022/04/08 09:31:59;;;;;;;7.03;2.83;;;;;;;8.61;75.76;99682.91;5328463;27;20027;-64
2022/04/08 09:34:30;;;;;;;8.50;2.70;;;;;;;8.52;72.56;99688.19;5350131;27;20037;-64
2022/04/08 09:37:11;;;;;;;5.97;3.03;;;;;;;8.68;82.29;99679.69;5345800;27;20031;-64
2022/04/08 09:40:00;;;;;;;8.35;2.55;;;;;;;8.70;79.85;99680.41;5348082;27;20027;-64
2022/04/08 09:42:43;;;;;;;8.98;2.63;;;;;;;8.82;78.48;99685.50;5347883;27;20480;-64
2022/04/08 09:45:14;;;;;;;8.32;2.50;;;;;;;8.70;73.90;99673.25;5347825;27;20515;-64
2022/04/08 09:47:46;;;;;;;6.70;2.40;;;;;;;8.82;79.35;99677.53;5346801;27;20114;-64
2022/04/08 09:50:17;;;;;;;7.22;2.38;;;;;;;8.67;72.45;99678.88;5347947;27;20034;-64
2022/04/08 09:52:48;;;;;;;6.90;2.00;;;;;;;8.63;71.86;99670.31;5347872;27;20491;-64
2022/04/08 09:55:25;;;;;;;6.70;2.00;;;;;;;8.66;74.78;99679.81;5347651;27;20373;-64
2022/04/08 09:58:00;;;;;;;10.38;2.45;;;;;;;8.52;71.05;99669.56;5328791;27;20079;-64
2022/04/08 10:00:32;;;;;;;9.55;2.35;;;;;;;8.71;74.40;99682.09;5345853;27;20070;-64
2022/04/08 10:03:04;;;;;;;6.78;2.15;;;;;;;8.74;74.67;99682.66;5345856;27;20102;-63
2022/04/08 10:05:35;;;;;;;8.48;2.42;;;;;;;8.87;76.93;99678.94;5350959;27;20037;-63
2022/04/08 10:08:07;;;;;;;8.35;2.25;;;;;;;9.10;79.26;99671.56;5347418;27;20540;-64
2022/04/08 10:10:51;;;;;;;7.25;2.72;;;;;;;9.15;73.76;99664.84;5350728;27;21266;-63
2022/04/08 10:13:45;;;;;;;11.98;2.55;;;;;;;9.30;77.33;99672.44;5348135;27;20053;-64
2022/04/08 10:16:18;;;;;;;9.77;3.20;;;;;;;9.24;72.18;99673.81;5346102;27;20348;-64
2022/04/08 10:18:52;;;;;;;6.07;3.28;;;;;;;9.35;74.48;99670.22;5347386;27;20030;-64
2022/04/08 10:21:23;;;;;;;9.15;3.10;;;;;;;9.43;73.91;99673.00;5344284;27;20030;-64
2022/04/08 10:23:55;;;;;;;9.38;3.50;;;;;;;9.57;77.10;99677.09;5345836;27;20026;-64
2022/04/08 10:26:27;;;;;;;5.90;3.00;;;;;;;9.61;75.64;99670.50;5348309;27;20804;-64
2022/04/08 10:29:09;;;;;;;7.85;3.08;;;;;;;9.70;74.06;99661.66;5345122;27;20042;-63
2022/04/08 10:31:40;;;;;;;10.93;3.33;;;;;;;9.72;71.01;99658.84;5346422;27;20481;-64
2022/04/08 10:34:11;;;;;;;7.53;2.97;;;;;;;9.77;72.04;99661.94;5349802;27;20030;-64
2022/04/08 10:36:44;;;;;;;9.30;3.08;;;;;;;9.71;70.79;99651.88;5345406;27;20176;-63
2022/04/08 10:39:21;;;;;;;8.52;2.60;;;;;;;9.59;72.53;99652.00;5346674;27;20376;-64
2022/04/08 10:41:57;;;;;;;8.80;2.58;;;;;;;9.53;73.32;99649.91;5345149;27;20023;-64
2022/04/08 10:44:41;;;;;;;9.63;3.17;;;;;;;9.52;76.04;99647.38;5346023;27;20027;-64
2022/04/08 10:47:15;;;;;;;8.18;2.63;;;;;;;9.47;74.02;99665.59;5347389;27;20443;-63
2022/04/08 10:49:51;;;;;;;7.28;3.20;;;;;;;9.47;73.71;99657.59;5343519;27;20487;-63
2022/04/08 10:52:38;;;;;;;11.23;2.80;;;;;;;9.51;72.65;99651.88;5345931;27;20050;-63
2022/04/08 10:55:11;;;;;;;6.80;2.92;;;;;;;9.22;68.52;99665.13;5347261;27;20092;-64
2022/04/08 10:57:44;;;;;;;8.50;2.65;;;;;;;9.38;72.23;99656.63;5345006;27;20155;-63
2022/04/08 11:00:18;;;;;;;8.48;2.90;;;;;;;9.33;74.61;99659.69;5344493;27;20035;-64
2022/04/08 11:02:53;;;;;;;7.65;3.10;;;;;;;9.23;70.73;99666.84;5346541;27;20067;-63
2022/04/08 11:05:24;;;;;;;12.15;3.03;;;;;;;9.07;71.35;99661.19;5345591;27;20035;-64
2022/04/08 11:07:58;;;;;;;7.32;2.60;;;;;;;9.19;71.14;99652.13;5345022;27;20118;-64
2022/04/08 11:10:31;;;;;;;7.43;2.50;;;;;;;9.20;71.98;99637.81;5345734;27;20507;-64
2022/04/08 11:13:03;;;;;;;10.82;3.63;;;;;;;9.11;71.09;99630.66;5343860;27;20157;-64
2022/04/08 11:15:34;;;;;;;8.95;3.20;;;;;;;9.13;71.51;99626.91;5327355;27;20115;-63
2022/04/08 11:18:08;;;;;;;8.40;2.47;;;;;;;9.13;70.91;99628.72;5345611;27;20026;-64
2022/04/08 11:20:39;;;;;;;9.07;2.40;;;;;;;9.20;73.09;99635.16;5346180;27;21651;-64
2022/04/08 11:23:10;;;;;;;8.18;2.70;;;;;;;9.22;71.20;99626.09;5343448;27;20041;-64
2022/04/08 11:25:41;;;;;;;10.05;2.97;;;;;;;9.29;70.68;99625.53;5345672;27;20030;-64
2022/04/08 11:28:14;;;;;;;7.78;2.47;;;;;;;9.17;69.82;99622.97;5344355;27;20034;-64
2022/04/08 11:30:46;;;;;;;7.97;2.70;;;;;;;9.16;69.57;99621.28;5346954;27;20114;-64
2022/04/08 11:33:18;;;;;;;12.05;3.08;;;;;;;9.11;70.07;99612.91;5344622;27;20027;-64
2022/04/08 11:35:58;;;;;;;8.45;2.83;;;;;;;9.02;69.69;99600.41;5343167;27;20099;-64
2022/04/08 11:38:31;;;;;;;5.30;2.40;;;;;;;9.04;68.99;99590.47;5345683;27;20039;-63
2022/04/08 11:41:04;;;;;;;9.18;2.80;;;;;;;9.00;69.21;99587.25;5346476;27;20472;-64
2022/04/08 11:43:35;;;;;;;7.63;2.58;;;;;;;9.20;70.27;99574.81;5344686;27;20019;-63
2022/04/08 11:46:13;;;;;;;8.85;3.03;;;;;;;9.42;71.03;99578.16;5345097;27;20522;-63
2022/04/08 11:48:45;;;;;;;9.07;2.35;;;;;;;9.56;69.06;99583.03;5344148;27;20496;-63
2022/04/08 11:51:21;;;;;;;10.32;2.95;;;;;;;9.55;67.02;99577.84;5344807;27;20290;-63